createdAt,value
2018-07-30T00:02:05.956Z,17.60
2018-07-30T00:04:33.951Z,17.50
2018-07-30T00:07:01.949Z,17.20
2018-07-30T00:09:29.914Z,17.40
2018-07-30T00:11:57.881Z,17.40
2018-07-30T00:14:25.844Z,17.40
2018-07-30T00:16:53.825Z,17.40
2018-07-30T00:19:21.735Z,17.30
2018-07-30T00:21:49.747Z,17.10
2018-07-30T00:24:17.716Z,17.20
2018-07-30T00:26:45.722Z,17.30
2018-07-30T00:29:13.712Z,17.40
2018-07-30T00:31:41.839Z,17.40
2018-07-30T00:34:09.832Z,17.40
2018-07-30T00:36:37.805Z,17.30
2018-07-30T00:39:11.546Z,17.10
2018-07-30T00:41:39.860Z,17.00
2018-07-30T00:44:08.208Z,17.20
2018-07-30T00:46:37.035Z,17.10
2018-07-30T00:49:05.796Z,16.80
2018-07-30T00:51:33.729Z,16.80
2018-07-30T00:54:01.724Z,16.90
2018-07-30T00:56:29.675Z,16.80
2018-07-30T00:58:57.708Z,16.80
2018-07-30T01:01:25.642Z,16.60
2018-07-30T01:03:53.961Z,16.30
2018-07-30T01:06:21.960Z,16.30
2018-07-30T01:08:49.971Z,16.30
2018-07-30T01:11:17.935Z,16.40
2018-07-30T01:13:45.881Z,16.40
2018-07-30T01:16:13.855Z,16.20
2018-07-30T01:18:41.845Z,16.10
2018-07-30T01:21:09.807Z,16.30
2018-07-30T01:23:37.840Z,16.10
2018-07-30T01:26:23.848Z,16.30
2018-07-30T01:28:52.403Z,16.20
2018-07-30T01:31:20.558Z,16.30
2018-07-30T01:33:48.595Z,16.30
2018-07-30T01:36:16.565Z,16.40
2018-07-30T01:38:44.515Z,16.40
2018-07-30T01:41:12.482Z,16.30
2018-07-30T01:43:40.436Z,16.30
2018-07-30T01:46:08.479Z,16.20
2018-07-30T01:48:36.427Z,16.20
2018-07-30T01:51:04.431Z,16.10
2018-07-30T01:53:32.483Z,16.10
2018-07-30T01:56:00.665Z,16.00
2018-07-30T01:58:28.647Z,15.90
2018-07-30T02:00:56.622Z,16.00
2018-07-30T02:03:24.706Z,16.00
2018-07-30T02:05:52.652Z,16.00
2018-07-30T02:08:20.590Z,15.90
2018-07-30T02:10:48.590Z,15.90
2018-07-30T02:13:16.565Z,15.80
2018-07-30T02:15:44.553Z,16.00
2018-07-30T02:18:12.585Z,16.10
2018-07-30T02:20:40.680Z,16.00
2018-07-30T02:23:08.708Z,16.00
2018-07-30T02:25:36.736Z,15.90
2018-07-30T02:28:04.733Z,15.90
2018-07-30T02:30:32.696Z,15.90
2018-07-30T02:33:00.675Z,15.70
2018-07-30T02:35:28.661Z,15.80
2018-07-30T02:37:56.647Z,15.70
2018-07-30T02:40:24.613Z,15.70
2018-07-30T02:42:52.626Z,15.70
2018-07-30T02:45:20.560Z,15.70
2018-07-30T02:47:48.554Z,15.70
2018-07-30T02:50:16.633Z,15.70
2018-07-30T02:52:44.652Z,15.70
2018-07-30T02:55:12.658Z,15.70
2018-07-30T02:57:40.673Z,15.60
2018-07-30T03:00:08.727Z,15.50
2018-07-30T03:02:36.882Z,15.40
2018-07-30T03:05:05.466Z,15.30
2018-07-30T03:07:33.495Z,15.20
2018-07-30T03:10:01.462Z,15.30
2018-07-30T03:12:29.505Z,15.30
2018-07-30T03:14:57.465Z,15.20
2018-07-30T03:17:25.429Z,15.20
2018-07-30T03:19:53.425Z,15.20
2018-07-30T03:22:21.394Z,15.20
2018-07-30T03:24:49.488Z,15.10
2018-07-30T03:27:17.458Z,15.20
2018-07-30T03:29:45.413Z,15.20
2018-07-30T03:32:13.481Z,15.30
2018-07-30T03:34:41.441Z,15.30
2018-07-30T03:37:09.476Z,15.30
2018-07-30T03:39:37.441Z,15.20
2018-07-30T03:42:05.910Z,15.00
2018-07-30T03:44:33.964Z,15.10
2018-07-30T03:47:01.932Z,15.10
2018-07-30T03:49:29.942Z,15.00
2018-07-30T03:51:57.918Z,15.00
2018-07-30T03:54:25.888Z,15.00
2018-07-30T03:56:53.905Z,15.10
2018-07-30T03:59:21.828Z,15.20
2018-07-30T04:01:49.885Z,15.20
2018-07-30T04:04:17.906Z,15.30
2018-07-30T04:06:45.866Z,15.30
2018-07-30T04:09:13.861Z,15.20
2018-07-30T04:11:41.867Z,15.30
2018-07-30T04:14:09.865Z,15.30
2018-07-30T04:16:48.076Z,15.20
2018-07-30T04:19:16.094Z,15.20
2018-07-30T04:21:44.053Z,15.10
2018-07-30T04:24:12.038Z,15.10
2018-07-30T04:26:40.036Z,15.10
2018-07-30T04:29:08.037Z,15.00
2018-07-30T04:31:35.994Z,15.20
2018-07-30T04:34:04.079Z,15.20
2018-07-30T04:36:32.036Z,15.30
2018-07-30T04:39:00.018Z,15.30
2018-07-30T04:41:28.003Z,15.30
2018-07-30T04:43:55.987Z,15.40
2018-07-30T04:46:23.994Z,15.40
2018-07-30T04:48:52.490Z,15.30
2018-07-30T04:51:20.507Z,15.30
2018-07-30T04:53:48.550Z,15.40
2018-07-30T04:56:16.538Z,15.50
2018-07-30T04:58:44.469Z,15.50
2018-07-30T05:01:12.456Z,15.60
2018-07-30T05:03:40.502Z,15.80
2018-07-30T05:06:08.504Z,15.70
2018-07-30T05:08:36.458Z,15.70
2018-07-30T05:11:04.454Z,15.80
2018-07-30T05:13:32.414Z,15.90
2018-07-30T05:16:00.387Z,16.20
2018-07-30T05:18:28.393Z,16.20
2018-07-30T05:20:56.365Z,16.50
2018-07-30T05:23:24.363Z,16.60
2018-07-30T05:25:52.301Z,16.60
2018-07-30T05:28:20.286Z,16.50
2018-07-30T05:30:48.244Z,16.50
2018-07-30T05:33:16.191Z,16.60
2018-07-30T05:35:44.201Z,16.60
2018-07-30T05:38:12.138Z,16.70
2018-07-30T05:40:59.739Z,16.90
2018-07-30T05:43:27.718Z,16.90
2018-07-30T05:45:55.728Z,16.90
2018-07-30T05:48:23.773Z,17.10
2018-07-30T05:50:51.919Z,17.20
2018-07-30T05:53:19.930Z,17.30
2018-07-30T05:55:47.887Z,17.30
2018-07-30T05:58:15.869Z,17.60
2018-07-30T06:00:43.818Z,17.80
2018-07-30T06:03:11.848Z,17.80
2018-07-30T06:05:39.843Z,18.00
2018-07-30T06:08:07.896Z,18.40
2018-07-30T06:10:35.950Z,18.60
2018-07-30T06:13:03.967Z,18.60
2018-07-30T06:15:32.283Z,19.00
2018-07-30T06:18:00.253Z,19.10
2018-07-30T06:20:28.244Z,19.30
2018-07-30T06:22:56.193Z,19.30
2018-07-30T06:25:24.191Z,19.80
2018-07-30T06:27:52.151Z,19.70
2018-07-30T06:30:20.096Z,19.90
2018-07-30T06:32:48.144Z,20.00
2018-07-30T06:35:16.125Z,20.10
2018-07-30T06:37:44.122Z,20.20
2018-07-30T06:40:12.096Z,20.20
2018-07-30T06:42:40.129Z,20.40
2018-07-30T06:45:08.050Z,20.40
2018-07-30T06:47:36.016Z,20.60
2018-07-30T06:50:04.247Z,20.70
2018-07-30T06:52:32.225Z,20.80
2018-07-30T06:55:00.198Z,20.90
2018-07-30T06:57:28.145Z,21.00
2018-07-30T06:59:56.179Z,21.00
2018-07-30T07:02:24.137Z,21.00
2018-07-30T07:04:52.165Z,21.20
2018-07-30T07:07:20.099Z,21.30
2018-07-30T07:09:48.079Z,21.50
2018-07-30T07:12:16.042Z,21.70
2018-07-30T07:14:43.993Z,21.80
2018-07-30T07:17:11.992Z,21.70
2018-07-30T07:19:39.913Z,21.80
2018-07-30T07:22:08.048Z,21.80
2018-07-30T07:24:35.867Z,21.90
2018-07-30T07:27:03.900Z,21.90
2018-07-30T07:29:31.810Z,22.10
2018-07-30T07:31:59.726Z,22.20
2018-07-30T07:34:27.709Z,22.40
2018-07-30T07:36:55.672Z,22.70
2018-07-30T07:39:23.650Z,22.30
2018-07-30T07:41:51.593Z,22.30
2018-07-30T07:44:19.533Z,22.50
2018-07-30T07:46:47.508Z,22.40
2018-07-30T07:49:15.461Z,22.50
2018-07-30T07:51:43.424Z,22.80
2018-07-30T07:54:11.392Z,22.90
2018-07-30T07:56:39.339Z,22.90
2018-07-30T07:59:07.302Z,23.00
2018-07-30T08:01:35.285Z,23.20
2018-07-30T08:04:03.281Z,22.90
2018-07-30T08:06:31.232Z,23.20
2018-07-30T08:08:59.181Z,23.40
2018-07-30T08:11:27.106Z,23.60
2018-07-30T08:13:55.093Z,23.60
2018-07-30T08:16:23.160Z,23.60
2018-07-30T08:18:51.194Z,23.50
2018-07-30T08:21:19.163Z,23.60
2018-07-30T08:23:47.084Z,23.30
2018-07-30T08:26:15.068Z,23.40
2018-07-30T08:28:42.984Z,23.60
2018-07-30T08:31:10.903Z,23.50
2018-07-30T08:33:38.909Z,23.80
2018-07-30T08:36:06.828Z,23.90
2018-07-30T08:38:34.805Z,24.00
2018-07-30T08:41:02.745Z,23.70
2018-07-30T08:43:30.714Z,23.90
2018-07-30T08:45:58.647Z,24.00
2018-07-30T08:48:26.646Z,24.30
2018-07-30T08:50:54.619Z,24.20
2018-07-30T08:53:22.572Z,24.40
2018-07-30T08:55:50.579Z,24.40
2018-07-30T08:58:18.528Z,24.50
2018-07-30T09:00:46.472Z,24.50
2018-07-30T09:03:14.391Z,24.40
2018-07-30T09:05:42.323Z,24.60
2018-07-30T09:08:10.321Z,24.30
2018-07-30T09:10:38.244Z,24.40
2018-07-30T09:13:06.572Z,24.90
2018-07-30T09:15:34.621Z,24.50
2018-07-30T09:18:02.626Z,24.60
2018-07-30T09:20:30.538Z,25.20
2018-07-30T09:22:58.465Z,24.90
2018-07-30T09:25:26.443Z,25.00
2018-07-30T09:27:54.648Z,25.20
2018-07-30T09:30:22.645Z,25.30
2018-07-30T09:32:50.706Z,25.10
2018-07-30T09:35:18.616Z,25.50
2018-07-30T09:37:46.542Z,25.40
2018-07-30T09:40:14.448Z,25.60
2018-07-30T09:42:42.522Z,25.50
2018-07-30T09:45:10.463Z,25.30
2018-07-30T09:47:38.401Z,25.60
2018-07-30T09:50:06.383Z,25.90
2018-07-30T09:52:34.345Z,25.80
2018-07-30T09:55:02.279Z,25.70
2018-07-30T09:57:30.201Z,25.80
2018-07-30T09:59:58.145Z,26.20
2018-07-30T10:02:26.063Z,25.90
2018-07-30T10:04:54.069Z,26.10
2018-07-30T10:07:22.081Z,26.60
2018-07-30T10:09:50.274Z,26.30
2018-07-30T10:12:18.183Z,26.40
2018-07-30T10:14:46.101Z,26.40
2018-07-30T10:17:14.068Z,26.90
2018-07-30T10:19:42.007Z,26.90
2018-07-30T10:22:09.970Z,27.00
2018-07-30T10:24:37.917Z,27.30
2018-07-30T10:27:05.888Z,27.20
2018-07-30T10:29:33.807Z,27.40
2018-07-30T10:32:01.736Z,27.70
2018-07-30T10:34:29.737Z,27.70
2018-07-30T10:36:57.650Z,27.70
2018-07-30T10:39:25.608Z,27.30
2018-07-30T10:41:53.579Z,27.80
2018-07-30T10:44:21.581Z,28.20
2018-07-30T10:46:49.597Z,27.80
2018-07-30T10:49:17.516Z,28.20
2018-07-30T10:51:45.496Z,28.20
2018-07-30T10:54:13.426Z,28.30
2018-07-30T10:56:41.385Z,28.70
2018-07-30T10:59:09.296Z,28.60
2018-07-30T11:01:37.265Z,28.70
2018-07-30T11:04:05.191Z,28.90
2018-07-30T11:06:33.177Z,28.70
2018-07-30T11:09:01.097Z,28.40
2018-07-30T11:11:29.038Z,28.20
2018-07-30T11:13:56.983Z,28.50
2018-07-30T11:16:24.889Z,28.80
2018-07-30T11:18:52.843Z,28.90
2018-07-30T11:21:20.760Z,29.10
2018-07-30T11:23:48.739Z,29.10
2018-07-30T11:26:16.722Z,28.90
2018-07-30T11:28:44.634Z,28.80
2018-07-30T11:31:12.634Z,29.60
2018-07-30T11:33:40.664Z,30.20
2018-07-30T11:36:08.506Z,29.80
2018-07-30T11:38:36.428Z,29.90
2018-07-30T11:41:04.433Z,29.50
2018-07-30T11:43:32.397Z,29.70
2018-07-30T11:46:00.326Z,30.20
2018-07-30T11:48:28.313Z,30.10
2018-07-30T11:50:56.239Z,29.70
2018-07-30T11:53:24.275Z,30.30
2018-07-30T11:55:52.197Z,30.90
2018-07-30T11:58:20.155Z,31.30
2018-07-30T12:00:48.137Z,30.40
2018-07-30T12:03:16.044Z,30.10
2018-07-30T12:05:44.012Z,30.10
2018-07-30T12:08:11.934Z,30.50
2018-07-30T12:10:39.940Z,30.70
2018-07-30T12:13:07.888Z,30.50
2018-07-30T12:15:35.801Z,30.70
2018-07-30T12:18:03.764Z,31.20
2018-07-30T12:20:31.666Z,31.60
2018-07-30T12:22:59.611Z,31.20
2018-07-30T12:25:27.563Z,31.70
2018-07-30T12:27:55.504Z,32.20
2018-07-30T12:30:23.543Z,31.60
2018-07-30T12:32:51.423Z,32.10
2018-07-30T12:35:19.340Z,32.60
2018-07-30T12:37:47.287Z,32.60
2018-07-30T12:40:15.330Z,32.40
2018-07-30T12:42:43.255Z,32.20
2018-07-30T12:45:11.183Z,32.70
2018-07-30T12:47:39.119Z,33.20
2018-07-30T12:50:07.092Z,32.80
2018-07-30T12:52:35.029Z,32.50
2018-07-30T12:55:02.981Z,32.70
2018-07-30T12:57:30.907Z,33.50
2018-07-30T12:59:58.879Z,31.90
2018-07-30T13:02:26.789Z,32.10
2018-07-30T13:04:54.815Z,32.60
2018-07-30T13:07:22.728Z,33.20
2018-07-30T13:09:50.701Z,33.00
2018-07-30T13:12:18.677Z,33.70
2018-07-30T13:14:46.626Z,34.00
2018-07-30T13:17:14.575Z,34.50
2018-07-30T13:19:42.477Z,34.00
2018-07-30T13:22:10.429Z,33.90
2018-07-30T13:24:38.354Z,34.30
2018-07-30T13:27:06.288Z,33.90
2018-07-30T13:29:34.254Z,34.50
2018-07-30T13:32:02.164Z,35.20
2018-07-30T13:34:30.338Z,35.00
2018-07-30T13:36:58.224Z,34.40
2018-07-30T13:39:26.199Z,34.40
2018-07-30T13:41:54.132Z,34.40
2018-07-30T13:44:22.048Z,34.50
2018-07-30T13:46:50.030Z,34.00
2018-07-30T13:49:17.974Z,34.80
2018-07-30T13:51:45.957Z,35.30
2018-07-30T13:54:13.946Z,35.50
2018-07-30T13:56:41.879Z,35.70
2018-07-30T13:59:09.827Z,35.60
2018-07-30T14:01:37.777Z,34.90
2018-07-30T14:04:05.766Z,35.00
2018-07-30T14:06:33.859Z,35.30
2018-07-30T14:09:01.660Z,35.60
2018-07-30T14:11:29.585Z,35.50
2018-07-30T14:13:57.540Z,35.90
2018-07-30T14:16:25.461Z,35.60
2018-07-30T14:18:53.362Z,35.20
2018-07-30T14:21:21.304Z,36.50
2018-07-30T14:23:49.244Z,35.00
2018-07-30T14:26:17.183Z,35.90
2018-07-30T14:28:45.113Z,37.40
2018-07-30T14:31:13.110Z,40.50
2018-07-30T14:33:41.020Z,41.30
2018-07-30T14:36:09.067Z,42.10
2018-07-30T14:38:37.038Z,42.90
2018-07-30T14:41:04.967Z,42.20
2018-07-30T14:43:32.938Z,41.90
2018-07-30T14:46:00.893Z,42.50
2018-07-30T14:48:28.970Z,42.90
2018-07-30T14:50:56.951Z,43.50
2018-07-30T14:53:24.898Z,41.40
2018-07-30T14:55:52.917Z,43.00
2018-07-30T14:58:20.867Z,42.00
2018-07-30T15:00:48.782Z,43.30
2018-07-30T15:03:16.744Z,42.50
2018-07-30T15:05:44.686Z,42.60
2018-07-30T15:08:12.721Z,43.50
2018-07-30T15:10:40.659Z,45.10
2018-07-30T15:13:08.623Z,42.30
2018-07-30T15:15:36.564Z,41.10
2018-07-30T15:18:04.616Z,43.90
2018-07-30T15:20:32.569Z,42.40
2018-07-30T15:23:00.494Z,43.40
2018-07-30T15:25:28.537Z,42.10
2018-07-30T15:27:56.583Z,42.00
2018-07-30T15:30:24.667Z,42.10
2018-07-30T15:32:52.601Z,42.70
2018-07-30T15:35:20.560Z,42.40
2018-07-30T15:37:48.605Z,40.40
2018-07-30T15:40:16.588Z,38.70
2018-07-30T15:42:44.574Z,38.10
2018-07-30T15:45:12.531Z,37.30
2018-07-30T15:47:40.504Z,37.10
2018-07-30T15:50:08.477Z,37.60
2018-07-30T15:52:36.444Z,37.40
2018-07-30T15:55:04.433Z,37.80
2018-07-30T15:57:33.314Z,37.70
2018-07-30T16:02:29.703Z,36.70
2018-07-30T16:04:57.715Z,37.40
2018-07-30T16:07:25.705Z,37.20
2018-07-30T16:09:54.031Z,36.40
2018-07-30T16:12:22.147Z,37.20
2018-07-30T16:14:50.282Z,37.20
2018-07-30T16:17:18.554Z,37.00
2018-07-30T16:19:46.661Z,36.80
2018-07-30T16:22:14.593Z,36.80
2018-07-30T16:24:42.566Z,37.10
2018-07-30T16:27:10.567Z,37.20
2018-07-30T16:29:38.657Z,37.90
2018-07-30T16:32:06.584Z,37.30
2018-07-30T16:34:34.608Z,36.70
2018-07-30T16:37:02.536Z,36.40
2018-07-30T16:39:30.592Z,36.40
2018-07-30T16:41:58.571Z,37.00
2018-07-30T16:44:26.533Z,37.20
2018-07-30T16:46:54.535Z,37.00
2018-07-30T16:49:22.475Z,36.90
2018-07-30T16:51:50.530Z,36.00
2018-07-30T16:54:18.512Z,36.50
2018-07-30T16:56:46.452Z,35.70
2018-07-30T16:59:14.513Z,35.80
2018-07-30T17:01:42.449Z,36.30
2018-07-30T17:04:10.398Z,36.40
2018-07-30T17:06:38.320Z,36.50
2018-07-30T17:09:09.348Z,36.40
2018-07-30T17:11:37.481Z,35.80
2018-07-30T17:14:05.407Z,35.50
2018-07-30T17:16:33.411Z,35.60
2018-07-30T17:19:01.676Z,35.40
2018-07-30T17:21:29.655Z,35.30
2018-07-30T17:23:57.647Z,35.00
2018-07-30T17:26:25.602Z,34.50
2018-07-30T17:28:53.551Z,34.50
2018-07-30T17:31:21.635Z,34.30
2018-07-30T17:33:49.624Z,34.00
2018-07-30T17:36:17.534Z,34.10
2018-07-30T17:38:45.508Z,34.30
2018-07-30T17:41:13.434Z,34.90
2018-07-30T17:43:41.429Z,36.10
2018-07-30T17:46:09.389Z,36.30
2018-07-30T17:48:37.332Z,36.40
2018-07-30T17:51:05.340Z,35.60
2018-07-30T17:53:33.263Z,35.50
2018-07-30T17:56:01.233Z,34.70
2018-07-30T17:58:29.269Z,35.20
2018-07-30T18:00:57.496Z,34.50
2018-07-30T18:03:25.440Z,34.00
2018-07-30T18:05:53.385Z,34.00
2018-07-30T18:08:21.409Z,33.70
2018-07-30T18:10:49.385Z,33.60
2018-07-30T18:13:18.022Z,33.50
2018-07-30T18:15:45.919Z,32.60
2018-07-30T18:18:13.908Z,33.90
2018-07-30T18:20:41.908Z,33.40
2018-07-30T18:23:09.970Z,33.00
2018-07-30T18:25:37.920Z,32.40
2018-07-30T18:28:08.719Z,32.10
2018-07-30T18:30:36.758Z,31.80
2018-07-30T18:33:04.714Z,31.90
2018-07-30T18:35:32.688Z,31.50
2018-07-30T18:38:00.601Z,30.60
2018-07-30T18:40:28.646Z,31.00
2018-07-30T18:42:57.312Z,30.70
2018-07-30T18:45:25.723Z,30.60
2018-07-30T18:47:54.119Z,30.00
2018-07-30T18:50:22.072Z,29.80
2018-07-30T18:52:54.615Z,29.60
2018-07-30T18:55:23.223Z,29.30
2018-07-30T18:57:51.756Z,29.30
2018-07-30T19:00:43.784Z,29.10
2018-07-30T19:03:12.362Z,28.90
2018-07-30T19:05:41.601Z,28.80
2018-07-30T19:08:13.189Z,28.50
2018-07-30T19:10:41.580Z,28.20
2018-07-30T19:13:10.235Z,28.10
2018-07-30T19:15:38.933Z,27.80
2018-07-30T19:18:11.079Z,27.50
2018-07-30T19:20:39.887Z,27.40
2018-07-30T19:23:13.233Z,27.30
2018-07-30T19:25:45.185Z,27.10
2018-07-30T19:28:14.223Z,27.10
2018-07-30T19:30:43.120Z,26.80
2018-07-30T19:33:11.931Z,26.40
2018-07-30T19:35:40.509Z,26.10
2018-07-30T19:38:16.146Z,26.00
2018-07-30T19:40:44.679Z,26.30
2018-07-30T19:43:13.257Z,26.70
2018-07-30T19:45:45.016Z,26.20
2018-07-30T19:48:13.840Z,26.10
2018-07-30T19:50:42.900Z,25.90
2018-07-30T19:53:16.096Z,25.60
2018-07-30T19:55:51.950Z,25.40
2018-07-30T19:58:21.202Z,25.20
2018-07-30T20:00:49.855Z,25.10
2018-07-30T20:03:18.250Z,25.10
2018-07-30T20:05:50.639Z,25.30
2018-07-30T20:08:23.502Z,25.00
2018-07-30T20:10:52.154Z,24.40
2018-07-30T20:13:30.100Z,24.60
2018-07-30T20:15:58.362Z,24.50
2018-07-30T20:18:27.137Z,24.30
2018-07-30T20:20:55.169Z,24.00
2018-07-30T20:23:23.453Z,24.10
2018-07-30T20:25:52.039Z,23.80
2018-07-30T20:28:23.477Z,23.90
2018-07-30T20:31:02.121Z,23.90
2018-07-30T20:33:30.837Z,23.80
2018-07-30T20:35:59.139Z,23.90
2018-07-30T20:38:27.380Z,23.80
2018-07-30T20:40:55.602Z,23.90
2018-07-30T20:43:23.812Z,23.50
2018-07-30T20:45:52.111Z,23.20
2018-07-30T20:48:20.624Z,23.30
2018-07-30T20:50:48.680Z,23.10
2018-07-30T20:53:17.747Z,23.00
2018-07-30T20:55:45.724Z,22.80
2018-07-30T20:58:13.654Z,22.70
2018-07-30T21:00:41.751Z,22.60
2018-07-30T21:03:09.743Z,22.50
2018-07-30T21:05:44.111Z,22.40
2018-07-30T21:08:13.675Z,22.30
2018-07-30T21:10:42.732Z,22.50
2018-07-30T21:13:10.668Z,22.40
2018-07-30T21:15:38.601Z,22.20
2018-07-30T21:18:06.602Z,22.00
2018-07-30T21:20:36.594Z,21.90
2018-07-30T21:23:04.599Z,21.80
2018-07-30T21:25:32.504Z,21.80
2018-07-30T21:28:00.460Z,21.50
2018-07-30T21:30:28.496Z,21.20
2018-07-30T21:32:56.567Z,21.20
2018-07-30T21:35:24.479Z,21.40
2018-07-30T21:37:52.534Z,21.30
2018-07-30T21:40:20.480Z,21.10
2018-07-30T21:42:48.419Z,20.90
2018-07-30T21:45:16.708Z,20.90
2018-07-30T21:47:44.807Z,20.90
2018-07-30T21:50:12.795Z,21.00
2018-07-30T21:52:40.725Z,21.10
2018-07-30T21:55:08.722Z,21.10
2018-07-30T21:57:36.781Z,21.10
2018-07-30T22:00:08.853Z,21.10
2018-07-30T22:02:36.841Z,21.00
2018-07-30T22:05:11.690Z,20.70
2018-07-30T22:07:39.656Z,20.80
2018-07-30T22:10:07.627Z,20.50
2018-07-30T22:12:35.629Z,20.70
2018-07-30T22:15:03.573Z,20.50
2018-07-30T22:17:31.517Z,20.50
2018-07-30T22:19:59.727Z,20.70
2018-07-30T22:22:27.655Z,20.60
2018-07-30T22:24:56.059Z,20.80
2018-07-30T22:27:24.032Z,21.10
2018-07-30T22:29:52.030Z,21.10
2018-07-30T22:32:20.011Z,21.10
2018-07-30T22:34:47.971Z,21.00
2018-07-30T22:37:15.928Z,20.80
2018-07-30T22:39:43.860Z,20.70
2018-07-30T22:42:11.846Z,20.90
2018-07-30T22:44:41.201Z,20.90
2018-07-30T22:47:10.421Z,20.70
2018-07-30T22:49:38.383Z,20.60
2018-07-30T22:52:06.438Z,20.70
2018-07-30T22:54:34.426Z,20.80
2018-07-30T22:57:02.378Z,20.70
2018-07-30T22:59:30.318Z,20.80
2018-07-30T23:01:58.299Z,20.80
2018-07-30T23:04:26.248Z,20.80
2018-07-30T23:06:54.217Z,20.80
2018-07-30T23:09:22.179Z,20.70
2018-07-30T23:11:50.192Z,20.60
2018-07-30T23:14:18.171Z,20.60
2018-07-30T23:16:46.160Z,20.50
2018-07-30T23:19:14.088Z,20.60
2018-07-30T23:21:42.067Z,20.30
2018-07-30T23:24:10.012Z,20.30
2018-07-30T23:26:37.979Z,20.30
2018-07-30T23:29:05.929Z,20.30
2018-07-30T23:31:33.870Z,20.40
2018-07-30T23:34:01.813Z,20.20
2018-07-30T23:36:29.807Z,20.00
2018-07-30T23:38:57.764Z,19.90
2018-07-30T23:41:25.691Z,19.70
2018-07-30T23:43:53.652Z,19.60
2018-07-30T23:46:21.596Z,19.60
2018-07-30T23:48:49.631Z,19.40
2018-07-30T23:51:17.580Z,19.30
2018-07-30T23:53:45.570Z,19.20
2018-07-30T23:56:13.532Z,19.00
2018-07-30T23:58:41.468Z,19.10
